createdAt,value
2023-01-05T00:00:12.767Z,13.49
2023-01-05T00:02:18.796Z,13.43
2023-01-05T00:04:26.212Z,13.45
2023-01-05T00:06:28.551Z,13.49
2023-01-05T00:08:36.551Z,13.42
2023-01-05T00:10:42.920Z,13.41
2023-01-05T00:12:48.423Z,13.36
2023-01-05T00:14:53.692Z,13.34
2023-01-05T00:16:59.016Z,13.37
2023-01-05T00:19:04.390Z,13.33
2023-01-05T00:21:18.340Z,13.23
2023-01-05T00:23:21.302Z,13.22
2023-01-05T00:25:26.504Z,13.24
2023-01-05T00:27:29.402Z,13.26
2023-01-05T00:29:31.611Z,13.25
2023-01-05T00:31:33.853Z,13.29
2023-01-05T00:33:36.055Z,13.31
2023-01-05T00:35:39.800Z,13.27
2023-01-05T00:37:43.058Z,13.01
2023-01-05T00:39:45.271Z,13.21
2023-01-05T00:41:47.520Z,13.10
2023-01-05T00:43:49.783Z,13.07
2023-01-05T00:45:52.075Z,13.12
2023-01-05T00:47:55.368Z,13.18
2023-01-05T00:49:57.704Z,13.21
2023-01-05T00:52:00.069Z,13.11
2023-01-05T00:54:02.292Z,13.17
2023-01-05T00:56:04.934Z,13.21
2023-01-05T00:58:07.113Z,13.09
2023-01-05T01:00:13.748Z,13.14
2023-01-05T01:02:16.459Z,13.22
2023-01-05T01:04:19.836Z,13.17
2023-01-05T01:06:22.520Z,13.23
2023-01-05T01:08:24.940Z,13.18
2023-01-05T01:10:27.217Z,13.25
2023-01-05T01:12:29.479Z,13.17
2023-01-05T01:14:31.843Z,13.15
2023-01-05T01:16:35.332Z,13.20
2023-01-05T01:18:37.693Z,13.19
2023-01-05T01:20:40.263Z,13.11
2023-01-05T01:22:42.449Z,13.14
2023-01-05T01:24:44.612Z,13.13
2023-01-05T01:26:47.170Z,13.09
2023-01-05T01:28:49.619Z,13.09
2023-01-05T01:30:51.916Z,13.15
2023-01-05T01:32:54.155Z,13.01
2023-01-05T01:34:56.436Z,13.08
2023-01-05T01:36:59.354Z,13.07
2023-01-05T01:39:01.574Z,13.01
2023-01-05T01:41:04.026Z,13.12
2023-01-05T01:43:12.564Z,13.08
2023-01-05T01:45:20.816Z,13.00
2023-01-05T01:47:28.415Z,13.06
2023-01-05T01:49:30.571Z,13.13
2023-01-05T01:51:37.359Z,13.13
2023-01-05T01:53:43.362Z,13.04
2023-01-05T01:55:45.691Z,13.00
2023-01-05T01:57:50.674Z,13.07
2023-01-05T01:59:53.137Z,13.05
2023-01-05T02:02:00.157Z,13.01
2023-01-05T02:04:04.347Z,12.93
2023-01-05T02:06:07.391Z,12.96
2023-01-05T02:08:13.441Z,12.98
2023-01-05T02:10:19.352Z,12.96
2023-01-05T02:12:26.057Z,12.86
2023-01-05T02:14:30.021Z,12.91
2023-01-05T02:16:36.819Z,12.96
2023-01-05T02:18:51.796Z,12.96
2023-01-05T02:21:02.192Z,12.81
2023-01-05T02:23:06.160Z,12.94
2023-01-05T02:25:19.010Z,12.91
2023-01-05T02:27:27.585Z,12.86
2023-01-05T02:29:42.961Z,12.93
2023-01-05T02:31:55.395Z,12.91
2023-01-05T02:34:03.403Z,12.93
2023-01-05T02:36:09.260Z,12.96
2023-01-05T02:38:17.651Z,12.92
2023-01-05T02:40:25.539Z,13.00
2023-01-05T02:42:33.113Z,12.92
2023-01-05T02:44:35.378Z,12.90
2023-01-05T02:46:38.086Z,12.92
2023-01-05T02:48:42.450Z,12.91
2023-01-05T02:50:48.156Z,12.87
2023-01-05T02:52:59.612Z,12.85
2023-01-05T02:55:06.492Z,12.85
2023-01-05T02:57:14.264Z,12.86
2023-01-05T02:59:24.646Z,12.99
2023-01-05T03:01:32.822Z,12.98
2023-01-05T03:03:41.042Z,12.98
2023-01-05T03:05:52.490Z,12.85
2023-01-05T03:08:01.148Z,12.91
2023-01-05T03:10:24.574Z,12.88
2023-01-05T03:12:36.881Z,12.94
2023-01-05T03:14:46.672Z,12.88
2023-01-05T03:16:51.387Z,12.96
2023-01-05T03:18:58.772Z,12.95
2023-01-05T03:21:02.249Z,13.00
2023-01-05T03:23:12.977Z,12.95
2023-01-05T03:25:22.866Z,13.00
2023-01-05T03:27:28.559Z,12.93
2023-01-05T03:29:34.050Z,12.92
2023-01-05T03:31:48.051Z,12.92
2023-01-05T03:34:04.777Z,12.93
2023-01-05T03:36:09.464Z,12.89
2023-01-05T03:38:18.247Z,12.88
2023-01-05T03:40:25.926Z,12.86
2023-01-05T03:42:30.613Z,12.85
2023-01-05T03:44:36.672Z,12.90
2023-01-05T03:46:41.366Z,12.92
2023-01-05T03:48:43.986Z,12.95
2023-01-05T03:50:47.760Z,12.93
2023-01-05T03:52:50.044Z,12.92
2023-01-05T03:54:52.189Z,12.95
2023-01-05T03:56:54.413Z,12.77
2023-01-05T03:58:56.795Z,12.89
2023-01-05T04:00:58.911Z,12.95
2023-01-05T04:03:01.396Z,12.93
2023-01-05T04:05:03.700Z,12.87
2023-01-05T04:07:07.764Z,12.91
2023-01-05T04:09:10.030Z,12.90
2023-01-05T04:11:16.250Z,12.92
2023-01-05T04:13:18.683Z,12.89
2023-01-05T04:15:20.979Z,12.95
2023-01-05T04:17:23.322Z,12.88
2023-01-05T04:19:25.544Z,12.92
2023-01-05T04:21:27.915Z,12.96
2023-01-05T04:23:30.212Z,12.89
2023-01-05T04:25:32.473Z,12.82
2023-01-05T04:27:35.003Z,12.92
2023-01-05T04:29:37.682Z,12.94
2023-01-05T04:31:39.999Z,12.91
2023-01-05T04:33:45.613Z,12.93
2023-01-05T04:35:48.256Z,12.88
2023-01-05T04:37:50.563Z,12.86
2023-01-05T04:39:52.772Z,12.78
2023-01-05T04:41:54.998Z,12.78
2023-01-05T04:43:57.299Z,12.83
2023-01-05T04:45:59.638Z,12.83
2023-01-05T04:48:01.919Z,12.76
2023-01-05T04:50:04.872Z,12.71
2023-01-05T04:52:07.972Z,12.80
2023-01-05T04:54:10.507Z,12.79
2023-01-05T04:56:12.711Z,12.76
2023-01-05T04:58:15.112Z,12.67
2023-01-05T05:00:17.538Z,12.73
2023-01-05T05:02:20.070Z,12.77
2023-01-05T05:04:22.394Z,12.77
2023-01-05T05:06:24.699Z,12.65
2023-01-05T05:08:26.929Z,12.72
2023-01-05T05:10:29.327Z,12.66
2023-01-05T05:12:31.632Z,12.54
2023-01-05T05:14:33.878Z,12.65
2023-01-05T05:16:36.062Z,12.65
2023-01-05T05:18:38.480Z,12.51
2023-01-05T05:20:44.565Z,12.53
2023-01-05T05:22:46.822Z,12.56
2023-01-05T05:24:49.171Z,12.53
2023-01-05T05:26:51.476Z,12.59
2023-01-05T05:28:53.732Z,12.54
2023-01-05T05:30:57.369Z,12.56
2023-01-05T05:32:59.678Z,12.49
2023-01-05T05:35:02.035Z,12.56
2023-01-05T05:37:04.258Z,12.59
2023-01-05T05:39:06.532Z,12.50
2023-01-05T05:41:08.713Z,12.57
2023-01-05T05:43:10.936Z,12.54
2023-01-05T05:45:13.117Z,12.49
2023-01-05T05:47:15.299Z,12.50
2023-01-05T05:49:17.673Z,12.45
2023-01-05T05:51:19.870Z,12.40
2023-01-05T05:53:22.222Z,12.45
2023-01-05T05:55:24.474Z,12.46
2023-01-05T05:57:26.700Z,12.55
2023-01-05T05:59:28.871Z,12.57
2023-01-05T06:01:31.094Z,12.49
2023-01-05T06:03:33.400Z,12.52
2023-01-05T06:05:35.822Z,12.51
2023-01-05T06:07:38.102Z,12.49
2023-01-05T06:09:40.352Z,12.52
2023-01-05T06:11:42.571Z,12.57
2023-01-05T06:13:44.931Z,12.54
2023-01-05T06:15:47.363Z,12.54
2023-01-05T06:17:49.755Z,12.52
2023-01-05T06:19:52.043Z,12.63
2023-01-05T06:21:54.231Z,12.60
2023-01-05T06:23:56.375Z,12.58
2023-01-05T06:25:58.633Z,12.63
2023-01-05T06:28:01.210Z,12.65
2023-01-05T06:30:04.684Z,12.54
2023-01-05T06:32:06.997Z,12.56
2023-01-05T06:34:09.235Z,12.60
2023-01-05T06:36:11.548Z,12.55
2023-01-05T06:38:16.350Z,12.51
2023-01-05T06:40:18.722Z,12.56
2023-01-05T06:42:23.535Z,12.57
2023-01-05T06:44:26.307Z,12.55
2023-01-05T06:46:28.615Z,12.62
2023-01-05T06:48:30.880Z,12.68
2023-01-05T06:50:33.109Z,12.60
2023-01-05T06:52:40.036Z,12.71
2023-01-05T06:54:42.372Z,12.69
2023-01-05T06:56:44.649Z,12.59
2023-01-05T06:58:46.852Z,12.49
2023-01-05T07:00:49.128Z,12.55
2023-01-05T07:02:51.411Z,12.54
2023-01-05T07:04:53.601Z,12.57
2023-01-05T07:06:55.988Z,12.63
2023-01-05T07:08:58.245Z,12.60
2023-01-05T07:11:00.501Z,12.64
2023-01-05T07:13:02.774Z,12.65
2023-01-05T07:15:06.359Z,12.65
2023-01-05T07:17:08.765Z,12.63
2023-01-05T07:19:11.250Z,12.64
2023-01-05T07:21:13.494Z,12.70
2023-01-05T07:23:15.771Z,12.62
2023-01-05T07:25:18.581Z,12.61
2023-01-05T07:27:20.912Z,12.66
2023-01-05T07:29:23.145Z,12.60
2023-01-05T07:31:25.362Z,12.63
2023-01-05T07:33:27.646Z,12.67
2023-01-05T07:35:30.001Z,12.54
2023-01-05T07:37:32.251Z,12.68
2023-01-05T07:39:34.803Z,12.59
2023-01-05T07:41:37.324Z,12.68
2023-01-05T07:43:39.611Z,12.70
2023-01-05T07:45:42.377Z,12.68
2023-01-05T07:47:44.828Z,12.67
2023-01-05T07:49:47.176Z,12.57
2023-01-05T07:51:49.621Z,12.57
2023-01-05T07:53:51.936Z,12.43
2023-01-05T07:55:59.444Z,12.52
2023-01-05T07:58:01.774Z,12.58
2023-01-05T08:00:05.500Z,12.54
2023-01-05T08:02:09.261Z,12.54
2023-01-05T08:04:11.736Z,12.56
2023-01-05T08:06:18.895Z,12.45
2023-01-05T08:08:24.587Z,12.46
2023-01-05T08:10:30.257Z,12.45
2023-01-05T08:12:32.696Z,12.36
2023-01-05T08:14:34.990Z,12.45
2023-01-05T08:16:37.266Z,12.45
2023-01-05T08:18:39.632Z,12.51
2023-01-05T08:20:41.867Z,12.55
2023-01-05T08:22:44.130Z,12.58
2023-01-05T08:24:46.380Z,12.60
2023-01-05T08:26:51.659Z,12.63
2023-01-05T08:28:54.268Z,12.64
2023-01-05T08:31:02.487Z,12.69
2023-01-05T08:33:05.614Z,12.72
2023-01-05T08:35:08.359Z,12.76
2023-01-05T08:37:10.670Z,12.71
2023-01-05T08:39:13.573Z,12.78
2023-01-05T08:41:19.228Z,12.82
2023-01-05T08:43:22.260Z,12.82
2023-01-05T08:45:24.673Z,12.85
2023-01-05T08:47:28.610Z,12.82
2023-01-05T08:49:31.315Z,12.87
2023-01-05T08:51:34.071Z,12.89
2023-01-05T08:53:36.374Z,12.83
2023-01-05T08:55:38.574Z,12.97
2023-01-05T08:57:41.003Z,12.87
2023-01-05T08:59:43.202Z,12.94
2023-01-05T09:01:45.862Z,12.93
2023-01-05T09:03:48.556Z,12.92
2023-01-05T09:05:54.428Z,12.95
2023-01-05T09:07:57.149Z,13.07
2023-01-05T09:09:59.488Z,13.04
2023-01-05T09:12:01.735Z,13.01
2023-01-05T09:14:04.264Z,12.94
2023-01-05T09:16:08.569Z,12.97
2023-01-05T09:18:10.940Z,13.05
2023-01-05T09:20:13.251Z,13.10
2023-01-05T09:22:15.519Z,13.09
2023-01-05T09:24:17.860Z,13.10
2023-01-05T09:26:20.336Z,13.09
2023-01-05T09:28:22.721Z,13.22
2023-01-05T09:30:25.110Z,13.07
2023-01-05T09:32:27.364Z,13.03
2023-01-05T09:34:29.951Z,13.13
2023-01-05T09:36:32.702Z,13.19
2023-01-05T09:38:35.475Z,13.15
2023-01-05T09:40:44.056Z,13.19
2023-01-05T09:42:47.128Z,13.21
2023-01-05T09:44:58.933Z,13.26
2023-01-05T09:47:13.816Z,13.34
2023-01-05T09:49:17.634Z,13.41
2023-01-05T09:51:20.371Z,13.34
2023-01-05T09:53:30.481Z,13.41
2023-01-05T09:55:35.391Z,13.42
2023-01-05T09:57:37.848Z,13.47
2023-01-05T09:59:47.721Z,13.47
2023-01-05T10:01:52.099Z,13.56
2023-01-05T10:04:04.642Z,13.55
2023-01-05T10:06:13.968Z,13.61
2023-01-05T10:08:23.235Z,13.58
2023-01-05T10:10:36.391Z,13.64
2023-01-05T10:12:45.172Z,13.67
2023-01-05T10:14:53.379Z,13.65
2023-01-05T10:17:30.184Z,13.73
2023-01-05T10:19:20.921Z,13.76
2023-01-05T10:21:34.140Z,13.81
2023-01-05T10:23:38.108Z,13.76
2023-01-05T10:25:48.053Z,13.64
2023-01-05T10:27:56.717Z,13.72
2023-01-05T10:30:11.942Z,13.78
2023-01-05T10:32:18.740Z,13.86
2023-01-05T10:34:23.781Z,13.81
2023-01-05T10:37:06.561Z,13.72
2023-01-05T10:39:01.260Z,13.86
2023-01-05T10:41:09.761Z,13.83
2023-01-05T10:43:19.058Z,13.95
2023-01-05T10:45:23.340Z,13.98
2023-01-05T10:47:29.126Z,13.93
2023-01-05T10:49:32.942Z,13.91
2023-01-05T10:51:36.951Z,13.93
2023-01-05T10:53:42.035Z,13.85
2023-01-05T10:55:50.498Z,13.84
2023-01-05T10:57:52.679Z,13.91
2023-01-05T10:59:59.415Z,13.98
2023-01-05T11:02:02.131Z,13.96
2023-01-05T11:06:34.922Z,14.12
2023-01-05T11:08:37.631Z,14.06
2023-01-05T11:10:48.621Z,14.08
2023-01-05T11:12:55.120Z,14.08
2023-01-05T11:15:01.194Z,14.11
2023-01-05T11:17:07.244Z,14.22
2023-01-05T11:19:16.821Z,14.36
2023-01-05T11:21:23.671Z,14.35
2023-01-05T11:23:36.849Z,14.34
2023-01-05T11:25:40.124Z,14.46
2023-01-05T11:27:42.340Z,14.50
2023-01-05T11:29:44.758Z,14.53
2023-01-05T11:31:53.163Z,14.61
2023-01-05T11:33:58.668Z,14.58
2023-01-05T11:36:03.243Z,14.67
2023-01-05T11:38:06.598Z,14.65
2023-01-05T11:40:17.685Z,14.61
2023-01-05T11:42:26.461Z,14.64
2023-01-05T11:44:29.471Z,14.69
2023-01-05T11:48:52.533Z,14.81
2023-01-05T11:50:57.782Z,14.75
2023-01-05T11:53:02.707Z,14.75
2023-01-05T11:55:16.103Z,14.80
2023-01-05T11:57:22.928Z,14.64
2023-01-05T11:59:30.264Z,14.78
2023-01-05T12:01:47.330Z,14.80
2023-01-05T12:04:01.953Z,14.76
2023-01-05T12:06:14.561Z,14.64
2023-01-05T12:08:25.119Z,14.82
2023-01-05T12:10:31.982Z,14.83
2023-01-05T12:12:47.031Z,14.89
2023-01-05T12:14:58.343Z,14.90
2023-01-05T12:17:09.003Z,14.85
2023-01-05T12:19:14.254Z,14.84
2023-01-05T12:21:22.720Z,14.87
2023-01-05T12:23:29.649Z,14.78
2023-01-05T12:25:45.116Z,14.85
2023-01-05T12:27:53.511Z,14.89
2023-01-05T12:35:09.554Z,14.96
2023-01-05T12:37:18.251Z,14.95
2023-01-05T12:39:31.569Z,15.03
2023-01-05T12:41:38.648Z,15.02
2023-01-05T12:43:44.357Z,15.08
2023-01-05T12:45:52.886Z,15.00
2023-01-05T12:48:03.766Z,15.06
2023-01-05T12:50:20.096Z,14.97
2023-01-05T12:52:24.680Z,14.97
2023-01-05T12:54:33.865Z,15.05
2023-01-05T12:56:43.650Z,14.81
2023-01-05T12:58:56.452Z,14.66
2023-01-05T13:01:01.223Z,14.82
2023-01-05T13:03:13.512Z,14.84
2023-01-05T13:05:20.531Z,14.86
2023-01-05T13:07:29.529Z,14.80
2023-01-05T13:09:33.366Z,14.82
2023-01-05T13:11:41.040Z,14.90
2023-01-05T13:13:49.459Z,14.71
2023-01-05T13:15:58.194Z,14.80
2023-01-05T13:18:04.473Z,14.77
2023-01-05T13:20:13.379Z,14.78
2023-01-05T13:22:24.219Z,14.72
2023-01-05T13:24:31.602Z,14.86
2023-01-05T13:26:38.037Z,14.87
2023-01-05T13:28:40.801Z,14.96
2023-01-05T13:30:55.943Z,14.96
2023-01-05T13:33:02.101Z,14.92
2023-01-05T13:35:08.627Z,14.73
2023-01-05T13:37:23.330Z,14.89
2023-01-05T13:39:34.213Z,14.97
2023-01-05T13:41:38.095Z,15.03
2023-01-05T13:43:43.827Z,15.08
2023-01-05T13:45:50.839Z,15.09
2023-01-05T13:47:57.497Z,15.10
2023-01-05T13:50:03.409Z,14.99
2023-01-05T13:52:12.025Z,15.15
2023-01-05T13:54:19.485Z,15.12
2023-01-05T13:56:26.911Z,15.01
2023-01-05T13:58:38.609Z,14.96
2023-01-05T14:00:43.938Z,15.08
2023-01-05T14:02:57.192Z,14.98
2023-01-05T14:04:59.952Z,15.05
2023-01-05T14:07:07.460Z,15.00
2023-01-05T14:09:18.532Z,15.07
2023-01-05T14:11:24.112Z,15.15
2023-01-05T14:13:32.531Z,15.12
2023-01-05T14:15:37.918Z,15.26
2023-01-05T14:17:46.368Z,15.02
2023-01-05T14:19:53.459Z,15.14
2023-01-05T14:22:00.139Z,15.11
2023-01-05T14:24:02.319Z,15.05
2023-01-05T14:26:06.965Z,15.11
2023-01-05T14:28:15.503Z,15.17
2023-01-05T14:30:21.926Z,15.15
2023-01-05T14:32:30.403Z,15.16
2023-01-05T14:34:32.775Z,15.20
2023-01-05T14:36:39.989Z,15.16
2023-01-05T14:38:48.510Z,15.05
2023-01-05T14:40:55.976Z,15.16
2023-01-05T14:42:59.396Z,15.16
2023-01-05T14:45:07.129Z,15.16
2023-01-05T14:47:10.512Z,14.96
2023-01-05T14:49:23.204Z,15.09
2023-01-05T14:51:29.895Z,15.06
2023-01-05T14:53:38.372Z,15.00
2023-01-05T14:56:03.574Z,15.11
2023-01-05T14:58:13.071Z,14.93
2023-01-05T15:00:23.743Z,14.94
2023-01-05T15:02:34.419Z,14.96
2023-01-05T15:04:39.497Z,14.97
2023-01-05T15:06:45.346Z,15.05
2023-01-05T15:08:52.007Z,14.96
2023-01-05T15:11:04.620Z,14.98
2023-01-05T15:13:13.516Z,14.96
2023-01-05T15:15:20.800Z,15.06
2023-01-05T15:17:26.751Z,15.19
2023-01-05T15:19:31.736Z,15.07
2023-01-05T15:21:43.839Z,15.07
2023-01-05T15:23:49.880Z,14.96
2023-01-05T15:26:08.041Z,14.90
2023-01-05T15:28:23.554Z,14.95
2023-01-05T15:30:30.582Z,14.96
2023-01-05T15:32:39.439Z,14.93
2023-01-05T15:34:47.669Z,14.82
2023-01-05T15:36:53.226Z,14.85
2023-01-05T15:38:55.730Z,14.88
2023-01-05T15:41:02.731Z,14.75
2023-01-05T15:43:05.609Z,14.72
2023-01-05T15:45:18.145Z,14.80
2023-01-05T15:47:23.042Z,14.86
2023-01-05T15:49:29.815Z,14.78
2023-01-05T15:51:33.621Z,14.75
2023-01-05T15:53:41.491Z,14.80
2023-01-05T15:55:46.777Z,14.79
2023-01-05T15:57:55.277Z,14.72
2023-01-05T15:59:57.610Z,14.69
2023-01-05T16:02:00.366Z,14.68
2023-01-05T16:04:09.187Z,14.73
2023-01-05T16:06:16.427Z,14.79
2023-01-05T16:08:18.818Z,14.72
2023-01-05T16:10:27.278Z,14.60
2023-01-05T16:12:29.595Z,14.65
2023-01-05T16:14:36.814Z,14.66
2023-01-05T16:16:52.589Z,14.71
2023-01-05T16:19:01.105Z,14.68
2023-01-05T16:21:16.103Z,14.57
2023-01-05T16:23:28.800Z,14.67
2023-01-05T16:25:42.200Z,14.57
2023-01-05T16:27:48.675Z,14.58
2023-01-05T16:29:51.247Z,14.56
2023-01-05T16:31:55.747Z,14.37
2023-01-05T16:34:02.210Z,14.27
2023-01-05T16:36:10.650Z,14.26
2023-01-05T16:38:14.171Z,14.30
2023-01-05T16:40:20.979Z,14.24
2023-01-05T16:42:26.651Z,14.26
2023-01-05T16:44:33.331Z,14.30
2023-01-05T16:46:40.248Z,14.33
2023-01-05T16:48:47.282Z,14.33
2023-01-05T16:50:55.223Z,14.30
2023-01-05T16:53:00.448Z,14.35
2023-01-05T16:55:10.680Z,14.26
2023-01-05T16:57:21.032Z,14.18
2023-01-05T16:59:34.148Z,14.08
2023-01-05T17:01:44.129Z,14.05
2023-01-05T17:03:46.857Z,14.06
2023-01-05T17:05:52.690Z,14.04
2023-01-05T17:08:01.076Z,14.04
2023-01-05T17:10:03.635Z,13.81
2023-01-05T17:12:06.140Z,13.85
2023-01-05T17:14:09.810Z,13.91
2023-01-05T17:16:13.508Z,13.93
2023-01-05T17:18:18.694Z,13.78
2023-01-05T17:20:21.012Z,13.77
2023-01-05T17:22:23.291Z,13.91
2023-01-05T17:24:27.713Z,13.74
2023-01-05T17:26:36.539Z,13.91
2023-01-05T17:28:42.040Z,13.76
2023-01-05T17:30:46.498Z,13.80
2023-01-05T17:32:52.256Z,13.80
2023-01-05T17:34:54.535Z,13.86
2023-01-05T17:36:59.386Z,13.70
2023-01-05T17:39:01.937Z,13.64
2023-01-05T17:41:04.409Z,13.66
2023-01-05T17:43:07.417Z,13.70
2023-01-05T17:45:13.351Z,13.66
2023-01-05T17:47:15.662Z,13.75
2023-01-05T17:49:21.479Z,13.71
2023-01-05T17:51:23.819Z,13.65
2023-01-05T17:53:26.200Z,13.73
2023-01-05T17:55:29.850Z,13.68
2023-01-05T17:57:32.180Z,13.81
2023-01-05T17:59:34.478Z,13.67
2023-01-05T18:01:36.695Z,13.63
2023-01-05T18:03:39.073Z,13.68
2023-01-05T18:07:43.936Z,13.58
2023-01-05T18:09:46.015Z,13.42
2023-01-05T18:11:50.809Z,13.41
2023-01-05T18:13:54.034Z,13.45
2023-01-05T18:18:00.446Z,13.26
2023-01-05T18:20:03.001Z,13.27
2023-01-05T18:22:06.048Z,13.37
2023-01-05T18:24:08.387Z,13.37
2023-01-05T18:26:10.991Z,13.42
2023-01-05T18:28:13.577Z,13.41
2023-01-05T18:30:15.959Z,13.31
2023-01-05T18:32:18.539Z,13.36
2023-01-05T18:34:21.060Z,13.12
2023-01-05T18:36:23.242Z,13.17
2023-01-05T18:38:25.527Z,13.28
2023-01-05T18:40:29.138Z,13.35
2023-01-05T18:42:31.362Z,13.21
2023-01-05T18:44:33.603Z,13.22
2023-01-05T18:46:36.168Z,13.17
2023-01-05T18:48:38.563Z,13.16
2023-01-05T18:50:44.961Z,13.22
2023-01-05T18:52:48.965Z,13.15
2023-01-05T18:54:51.317Z,13.22
2023-01-05T18:56:53.620Z,13.18
2023-01-05T18:58:56.372Z,13.28
2023-01-05T19:00:58.675Z,13.23
2023-01-05T19:03:01.115Z,13.23
2023-01-05T19:05:03.388Z,13.31
2023-01-05T19:07:05.679Z,13.22
2023-01-05T19:09:09.638Z,13.31
2023-01-05T19:11:14.212Z,13.15
2023-01-05T19:13:16.515Z,13.10
2023-01-05T19:15:18.748Z,13.15
2023-01-05T19:17:21.000Z,13.15
2023-01-05T19:19:23.415Z,13.17
2023-01-05T19:21:26.692Z,13.31
2023-01-05T19:23:29.184Z,13.28
2023-01-05T19:25:31.439Z,13.22
2023-01-05T19:27:33.713Z,13.37
2023-01-05T19:29:36.026Z,13.36
2023-01-05T19:31:39.039Z,13.37
2023-01-05T19:33:42.393Z,13.43
2023-01-05T19:35:44.651Z,13.32
2023-01-05T19:37:47.382Z,13.46
2023-01-05T19:39:49.665Z,13.49
2023-01-05T19:41:52.113Z,13.29
2023-01-05T19:43:56.221Z,13.36
2023-01-05T19:46:00.459Z,13.27
2023-01-05T19:48:02.714Z,13.35
2023-01-05T19:50:05.714Z,13.34
2023-01-05T19:52:07.975Z,13.33
2023-01-05T19:54:11.353Z,13.36
2023-01-05T19:56:15.831Z,13.37
2023-01-05T19:58:18.063Z,13.35
2023-01-05T20:00:20.314Z,13.27
2023-01-05T20:02:22.692Z,13.29
2023-01-05T20:04:25.077Z,13.38
2023-01-05T20:06:30.684Z,13.35
2023-01-05T20:08:33.799Z,13.42
2023-01-05T20:10:38.256Z,13.45
2023-01-05T20:12:40.832Z,13.50
2023-01-05T20:14:44.041Z,13.54
2023-01-05T20:16:50.189Z,13.27
2023-01-05T20:18:52.834Z,13.45
2023-01-05T20:20:55.105Z,13.47
2023-01-05T20:22:57.408Z,13.57
2023-01-05T20:24:59.853Z,13.49
2023-01-05T20:27:07.870Z,13.50
2023-01-05T20:29:10.651Z,13.50
2023-01-05T20:31:19.194Z,13.40
2023-01-05T20:33:21.490Z,13.33
2023-01-05T20:35:23.959Z,13.36
2023-01-05T20:37:29.345Z,13.48
2023-01-05T20:39:32.723Z,13.38
2023-01-05T20:41:39.204Z,13.43
2023-01-05T20:43:44.694Z,13.46
2023-01-05T20:45:47.102Z,13.57
2023-01-05T20:47:49.378Z,13.61
2023-01-05T20:49:51.896Z,13.58
2023-01-05T20:51:54.489Z,13.57
2023-01-05T20:53:59.369Z,13.55
2023-01-05T20:56:06.117Z,13.53
2023-01-05T20:58:08.660Z,13.47
2023-01-05T21:00:14.182Z,13.48
2023-01-05T21:02:23.338Z,13.59
2023-01-05T21:04:27.835Z,13.65
2023-01-05T21:06:30.376Z,13.63
2023-01-05T21:08:35.167Z,13.59
2023-01-05T21:10:39.297Z,13.55
2023-01-05T21:12:42.235Z,13.65
2023-01-05T21:14:44.957Z,13.52
2023-01-05T21:16:50.427Z,13.58
2023-01-05T21:18:53.109Z,13.66
2023-01-05T21:20:55.747Z,13.70
2023-01-05T21:22:58.371Z,13.72
2023-01-05T21:25:01.570Z,13.71
2023-01-05T21:27:04.310Z,13.69
2023-01-05T21:29:08.147Z,13.76
2023-01-05T21:31:14.878Z,13.65
2023-01-05T21:33:17.524Z,13.60
2023-01-05T21:35:19.802Z,13.54
2023-01-05T21:37:22.101Z,13.51
2023-01-05T21:39:26.223Z,13.64
2023-01-05T21:41:32.223Z,13.49
2023-01-05T21:43:35.661Z,13.51
2023-01-05T21:45:40.883Z,13.54
2023-01-05T21:47:43.188Z,13.53
2023-01-05T21:49:45.982Z,13.52
2023-01-05T21:51:51.599Z,13.55
2023-01-05T21:53:56.953Z,13.59
2023-01-05T21:56:02.836Z,13.56
2023-01-05T21:58:05.272Z,13.56
2023-01-05T22:00:08.949Z,13.53
2023-01-05T22:02:11.799Z,13.55
2023-01-05T22:04:14.266Z,13.47
2023-01-05T22:06:16.918Z,13.48
2023-01-05T22:08:19.564Z,13.51
2023-01-05T22:10:21.929Z,13.49
2023-01-05T22:12:24.244Z,13.46
2023-01-05T22:14:26.565Z,13.51
2023-01-05T22:16:28.958Z,13.44
2023-01-05T22:18:31.735Z,13.43
2023-01-05T22:20:34.117Z,13.37
2023-01-05T22:22:36.371Z,13.28
2023-01-05T22:24:39.021Z,13.41
2023-01-05T22:26:41.295Z,13.38
2023-01-05T22:28:45.472Z,13.41
2023-01-05T22:30:47.731Z,13.43
2023-01-05T22:32:50.113Z,13.55
2023-01-05T22:34:52.447Z,13.55
2023-01-05T22:36:54.757Z,13.47
2023-01-05T22:38:57.719Z,13.42
2023-01-05T22:41:00.591Z,13.45
2023-01-05T22:43:02.937Z,13.41
2023-01-05T22:45:05.491Z,13.44
2023-01-05T22:47:07.849Z,13.37
2023-01-05T22:49:14.353Z,13.36
2023-01-05T22:51:18.219Z,13.25
2023-01-05T22:53:20.505Z,13.19
2023-01-05T22:55:22.736Z,13.14
2023-01-05T22:57:25.057Z,13.15
2023-01-05T22:59:28.645Z,13.23
2023-01-05T23:01:34.356Z,13.22
2023-01-05T23:03:36.694Z,13.09
2023-01-05T23:05:39.775Z,13.11
2023-01-05T23:07:42.005Z,13.16
2023-01-05T23:09:44.173Z,13.15
2023-01-05T23:11:47.155Z,13.01
2023-01-05T23:13:49.946Z,13.08
2023-01-05T23:15:55.032Z,13.09
2023-01-05T23:17:57.344Z,12.94
2023-01-05T23:19:59.610Z,12.96
2023-01-05T23:22:01.911Z,12.97
2023-01-05T23:24:05.252Z,12.87
2023-01-05T23:26:09.460Z,12.98
2023-01-05T23:28:11.801Z,12.92
2023-01-05T23:30:14.234Z,12.91
2023-01-05T23:32:18.888Z,13.07
2023-01-05T23:34:21.285Z,13.01
2023-01-05T23:36:24.192Z,13.07
2023-01-05T23:38:28.039Z,13.16
2023-01-05T23:40:30.240Z,13.24
2023-01-05T23:42:35.628Z,13.24
2023-01-05T23:44:37.903Z,13.14
2023-01-05T23:46:41.270Z,13.08
2023-01-05T23:48:44.208Z,13.17
2023-01-05T23:50:48.505Z,13.18
2023-01-05T23:52:50.790Z,13.29
2023-01-05T23:54:53.159Z,13.27
2023-01-05T23:56:55.411Z,13.28
2023-01-05T23:59:04.152Z,13.24
